createdAt,value
2019-04-27T00:02:05.723Z,32.99
2019-04-27T00:04:58.500Z,32.89
2019-04-27T00:07:59.462Z,32.89
2019-04-27T00:10:39.827Z,33.06
2019-04-27T00:13:12.949Z,33.22
2019-04-27T00:16:05.601Z,33.22
2019-04-27T00:18:57.837Z,32.93
2019-04-27T00:21:48.297Z,32.53
2019-04-27T00:24:20.432Z,32.94
2019-04-27T00:26:54.075Z,32.68
2019-04-27T00:29:26.079Z,32.87
2019-04-27T00:31:57.846Z,32.68
2019-04-27T00:34:30.043Z,32.47
2019-04-27T00:37:19.906Z,32.47
2019-04-27T00:40:23.554Z,33.26
2019-04-27T00:42:55.424Z,33.26
2019-04-27T00:45:27.431Z,33.18
2019-04-27T00:47:59.917Z,33.13
2019-04-27T00:50:33.793Z,33.13
2019-04-27T00:53:05.634Z,33.12
2019-04-27T00:55:40.337Z,33.00
2019-04-27T00:58:36.994Z,33.23
2019-04-27T01:01:27.598Z,33.23
2019-04-27T01:04:10.714Z,33.38
2019-04-27T01:06:43.746Z,33.46
2019-04-27T01:09:17.042Z,33.35
2019-04-27T01:11:48.799Z,33.35
2019-04-27T01:14:23.126Z,32.44
2019-04-27T01:16:59.819Z,32.44
2019-04-27T01:19:31.612Z,33.79
2019-04-27T01:22:03.635Z,33.79
2019-04-27T01:24:36.483Z,32.75
2019-04-27T01:27:18.946Z,33.15
2019-04-27T01:29:51.321Z,33.64
2019-04-27T01:32:23.118Z,33.76
2019-04-27T01:34:55.638Z,33.38
2019-04-27T01:37:28.523Z,32.39
2019-04-27T01:40:00.376Z,32.06
2019-04-27T01:42:32.226Z,31.74
2019-04-27T01:45:04.570Z,31.26
2019-04-27T01:47:36.578Z,31.41
2019-04-27T01:50:08.836Z,30.72
2019-04-27T01:52:41.108Z,31.04
2019-04-27T01:55:13.838Z,30.59
2019-04-27T01:57:46.219Z,30.59
2019-04-27T02:00:59.466Z,30.69
2019-04-27T02:03:45.002Z,30.34
2019-04-27T02:06:19.067Z,30.17
2019-04-27T02:08:51.790Z,30.42
2019-04-27T02:11:24.314Z,30.42
2019-04-27T02:13:56.259Z,29.72
2019-04-27T02:16:30.450Z,29.72
2019-04-27T02:19:03.282Z,29.07
2019-04-27T02:21:36.955Z,29.07
2019-04-27T02:24:10.997Z,29.37
2019-04-27T02:26:44.190Z,28.95
2019-04-27T02:29:50.472Z,28.95
2019-04-27T02:32:39.661Z,28.73
2019-04-27T02:35:14.942Z,28.72
2019-04-27T02:37:50.217Z,28.07
2019-04-27T02:40:55.667Z,28.07
2019-04-27T02:43:34.495Z,28.41
2019-04-27T02:46:06.641Z,28.48
2019-04-27T02:48:52.805Z,28.02
2019-04-27T02:51:13.889Z,28.02
2019-04-27T02:54:00.220Z,28.08
2019-04-27T02:56:31.853Z,27.51
2019-04-27T02:59:03.853Z,27.51
2019-04-27T03:01:46.302Z,26.88
2019-04-27T03:04:14.231Z,26.88
2019-04-27T03:06:46.331Z,26.75
2019-04-27T03:09:20.524Z,27.11
2019-04-27T03:11:52.198Z,26.86
2019-04-27T03:14:56.127Z,26.86
2019-04-27T03:17:39.322Z,27.07
2019-04-27T03:20:33.289Z,27.07
2019-04-27T03:23:09.497Z,27.06
2019-04-27T03:26:10.358Z,26.62
2019-04-27T03:28:41.058Z,26.62
2019-04-27T03:31:14.095Z,26.30
2019-04-27T03:33:46.515Z,26.30
2019-04-27T03:36:21.573Z,26.26
2019-04-27T03:38:51.983Z,25.70
2019-04-27T03:41:23.605Z,25.60
2019-04-27T03:43:55.845Z,25.76
2019-04-27T03:46:30.131Z,25.76
2019-04-27T03:49:03.725Z,24.31
2019-04-27T03:51:46.049Z,24.32
2019-04-27T03:54:29.682Z,24.00
2019-04-27T03:57:09.909Z,24.00
2019-04-27T04:00:01.737Z,24.36
2019-04-27T04:02:35.129Z,23.41
2019-04-27T04:05:09.659Z,23.41
2019-04-27T04:07:41.079Z,22.60
2019-04-27T04:10:13.213Z,22.60
2019-04-27T04:13:04.000Z,23.39
2019-04-27T04:16:00.520Z,22.57
2019-04-27T04:18:51.323Z,22.57
2019-04-27T04:21:23.456Z,22.11
2019-04-27T04:23:55.086Z,21.74
2019-04-27T04:26:32.158Z,21.91
2019-04-27T04:29:02.380Z,22.59
2019-04-27T04:31:34.167Z,20.34
2019-04-27T04:34:05.947Z,20.34
2019-04-27T04:36:39.427Z,19.84
2019-04-27T04:39:12.427Z,20.30
2019-04-27T04:42:03.474Z,19.15
2019-04-27T04:45:03.025Z,20.44
2019-04-27T04:47:42.610Z,20.44
2019-04-27T04:50:15.374Z,20.04
2019-04-27T04:52:49.967Z,18.99
2019-04-27T04:55:22.174Z,18.54
2019-04-27T04:57:56.699Z,18.15
2019-04-27T05:00:29.970Z,18.45
2019-04-27T05:03:01.875Z,19.65
2019-04-27T05:05:33.685Z,19.79
2019-04-27T05:08:05.858Z,18.83
2019-04-27T05:10:39.522Z,18.70
2019-04-27T05:13:11.567Z,18.20
2019-04-27T05:15:43.891Z,18.15
2019-04-27T05:18:15.908Z,18.15
2019-04-27T05:20:54.271Z,18.31
2019-04-27T05:23:28.702Z,18.31
2019-04-27T05:26:00.356Z,18.35
2019-04-27T05:28:33.614Z,17.48
2019-04-27T05:31:05.825Z,17.60
2019-04-27T05:33:38.885Z,17.64
2019-04-27T05:36:11.158Z,17.70
2019-04-27T05:38:45.869Z,16.88
2019-04-27T05:41:18.708Z,17.05
2019-04-27T05:44:11.154Z,17.64
2019-04-27T05:47:09.990Z,17.49
2019-04-27T05:49:49.166Z,17.27
2019-04-27T05:52:30.673Z,17.04
2019-04-27T05:55:03.001Z,17.49
2019-04-27T05:57:34.905Z,18.18
2019-04-27T06:00:09.188Z,18.18
2019-04-27T06:02:41.719Z,18.02
2019-04-27T06:05:14.223Z,18.02
2019-04-27T06:07:45.869Z,17.98
2019-04-27T06:10:19.684Z,17.43
2019-04-27T06:12:52.151Z,17.78
2019-04-27T06:15:24.459Z,17.62
2019-04-27T06:17:56.053Z,18.06
2019-04-27T06:20:28.611Z,18.42
2019-04-27T06:23:00.707Z,17.92
2019-04-27T06:25:32.344Z,17.92
2019-04-27T06:28:04.314Z,18.36
2019-04-27T06:30:36.743Z,17.77
2019-04-27T06:33:09.386Z,17.77
2019-04-27T06:35:41.718Z,17.98
2019-04-27T06:38:13.728Z,17.98
2019-04-27T06:40:45.493Z,17.77
2019-04-27T06:43:19.154Z,17.95
2019-04-27T06:45:51.302Z,17.95
2019-04-27T06:48:26.746Z,18.05
2019-04-27T06:51:03.647Z,18.23
2019-04-27T06:53:33.103Z,18.26
2019-04-27T06:56:05.071Z,17.33
2019-04-27T06:58:40.464Z,17.20
2019-04-27T07:01:11.218Z,17.68
2019-04-27T07:03:43.117Z,17.68
2019-04-27T07:06:15.013Z,17.99
2019-04-27T07:08:46.975Z,17.61
2019-04-27T07:11:19.761Z,17.40
2019-04-27T07:13:51.954Z,17.41
2019-04-27T07:16:23.640Z,17.42
2019-04-27T07:18:55.995Z,18.07
2019-04-27T07:21:28.699Z,18.07
2019-04-27T07:24:01.227Z,17.75
2019-04-27T07:26:33.935Z,17.75
2019-04-27T07:29:06.356Z,18.05
2019-04-27T07:31:40.291Z,18.48
2019-04-27T07:34:20.613Z,18.93
2019-04-27T07:36:54.440Z,18.93
2019-04-27T07:39:31.260Z,18.45
2019-04-27T07:42:06.336Z,17.38
2019-04-27T07:45:00.258Z,17.38
2019-04-27T07:47:32.169Z,18.59
2019-04-27T07:50:11.286Z,18.24
2019-04-27T07:52:48.682Z,18.24
2019-04-27T07:55:21.176Z,18.75
2019-04-27T07:57:55.546Z,17.01
2019-04-27T08:00:28.959Z,17.69
2019-04-27T08:03:01.463Z,17.69
2019-04-27T08:05:34.437Z,18.01
2019-04-27T08:08:09.469Z,18.06
2019-04-27T08:10:41.733Z,17.88
2019-04-27T08:13:14.100Z,17.88
2019-04-27T08:15:46.719Z,16.84
2019-04-27T08:18:19.054Z,16.27
2019-04-27T08:20:51.634Z,16.27
2019-04-27T08:23:23.902Z,17.05
2019-04-27T08:25:56.236Z,17.16
2019-04-27T08:28:38.715Z,16.74
2019-04-27T08:31:38.655Z,17.31
2019-04-27T08:34:32.455Z,17.44
2019-04-27T08:37:09.143Z,17.44
2019-04-27T08:39:45.034Z,16.88
2019-04-27T08:42:19.483Z,17.37
2019-04-27T08:44:53.131Z,19.04
2019-04-27T08:47:29.183Z,19.04
2019-04-27T08:50:03.573Z,17.89
2019-04-27T08:52:41.480Z,17.39
2019-04-27T08:55:15.502Z,16.68
2019-04-27T08:57:49.599Z,16.75
2019-04-27T09:00:24.268Z,16.52
2019-04-27T09:02:59.507Z,15.98
2019-04-27T09:05:34.494Z,16.25
2019-04-27T09:08:29.015Z,16.04
2019-04-27T09:11:20.420Z,16.05
2019-04-27T09:14:09.058Z,15.72
2019-04-27T09:17:04.285Z,15.72
2019-04-27T09:19:57.042Z,15.52
2019-04-27T09:22:38.980Z,15.52
2019-04-27T09:25:15.651Z,15.21
2019-04-27T09:27:52.755Z,15.29
2019-04-27T09:30:29.762Z,15.26
2019-04-27T09:33:05.431Z,15.75
2019-04-27T09:35:43.925Z,15.59
2019-04-27T09:38:37.061Z,15.44
2019-04-27T09:41:09.041Z,15.22
2019-04-27T09:44:02.522Z,15.16
2019-04-27T09:46:36.475Z,15.19
2019-04-27T09:49:11.914Z,15.19
2019-04-27T09:51:46.071Z,15.06
2019-04-27T09:54:23.680Z,15.55
2019-04-27T09:57:19.159Z,15.55
2019-04-27T09:59:51.250Z,15.52
2019-04-27T10:02:22.914Z,15.42
2019-04-27T10:04:56.402Z,15.38
2019-04-27T10:07:28.073Z,15.42
2019-04-27T10:09:59.933Z,14.98
2019-04-27T10:12:34.340Z,14.80
2019-04-27T10:15:07.519Z,14.80
2019-04-27T10:17:47.456Z,15.27
2019-04-27T10:20:20.036Z,14.94
2019-04-27T10:22:52.648Z,15.03
2019-04-27T10:25:26.824Z,14.63
2019-04-27T10:28:01.515Z,14.90
2019-04-27T10:30:33.610Z,14.77
2019-04-27T10:33:07.906Z,14.77
2019-04-27T10:35:39.624Z,14.81
2019-04-27T10:38:17.211Z,14.96
2019-04-27T10:40:49.579Z,15.31
2019-04-27T10:43:21.866Z,14.96
2019-04-27T10:45:53.783Z,14.95
2019-04-27T10:48:26.513Z,14.95
2019-04-27T10:50:58.126Z,14.75
2019-04-27T10:53:29.964Z,14.21
2019-04-27T10:56:01.870Z,14.21
2019-04-27T10:58:35.266Z,14.29
2019-04-27T11:01:09.126Z,14.92
2019-04-27T11:04:05.990Z,14.17
2019-04-27T11:06:41.344Z,14.17
2019-04-27T11:09:13.601Z,15.14
2019-04-27T11:11:46.402Z,15.14
2019-04-27T11:14:18.787Z,15.12
2019-04-27T11:16:50.679Z,14.71
2019-04-27T11:19:22.667Z,14.67
2019-04-27T11:21:54.390Z,14.75
2019-04-27T11:24:26.421Z,15.11
2019-04-27T11:26:58.087Z,14.69
2019-04-27T11:29:29.925Z,14.83
2019-04-27T11:32:01.790Z,15.06
2019-04-27T11:34:51.251Z,15.26
2019-04-27T11:37:30.028Z,14.53
2019-04-27T11:40:01.928Z,14.53
2019-04-27T11:42:34.965Z,15.21
2019-04-27T11:45:08.385Z,14.90
2019-04-27T11:47:40.191Z,15.46
2019-04-27T11:50:12.459Z,14.75
2019-04-27T11:53:06.028Z,14.75
2019-04-27T11:55:38.231Z,15.06
2019-04-27T11:58:10.197Z,15.06
2019-04-27T12:00:42.504Z,15.31
2019-04-27T12:03:16.528Z,15.31
2019-04-27T12:05:48.394Z,15.35
2019-04-27T12:08:20.386Z,15.44
2019-04-27T12:10:52.626Z,15.14
2019-04-27T12:13:25.913Z,14.94
2019-04-27T12:15:59.012Z,15.38
2019-04-27T12:18:30.597Z,15.38
2019-04-27T12:21:02.387Z,15.35
2019-04-27T12:23:37.108Z,15.35
2019-04-27T12:26:09.276Z,15.35
2019-04-27T12:28:50.016Z,15.54
2019-04-27T12:31:35.780Z,15.72
2019-04-27T12:34:07.317Z,15.71
2019-04-27T12:36:39.245Z,15.63
2019-04-27T12:39:15.646Z,15.69
2019-04-27T12:41:47.521Z,15.75
2019-04-27T12:44:19.639Z,15.90
2019-04-27T12:46:52.172Z,16.14
2019-04-27T12:49:23.841Z,15.95
2019-04-27T12:51:55.930Z,16.03
2019-04-27T12:54:39.843Z,16.16
2019-04-27T12:57:39.459Z,16.28
2019-04-27T13:00:20.270Z,16.67
2019-04-27T13:02:52.039Z,17.04
2019-04-27T13:05:25.720Z,16.50
2019-04-27T13:07:57.686Z,17.02
2019-04-27T13:10:30.784Z,18.42
2019-04-27T13:13:02.880Z,18.42
2019-04-27T13:15:35.683Z,17.38
2019-04-27T13:18:07.516Z,17.50
2019-04-27T13:20:39.420Z,17.14
2019-04-27T13:23:11.609Z,17.16
2019-04-27T13:25:43.595Z,17.49
2019-04-27T13:28:15.289Z,17.49
2019-04-27T13:30:47.600Z,17.65
2019-04-27T13:33:19.111Z,17.88
2019-04-27T13:35:51.064Z,18.45
2019-04-27T13:38:23.123Z,18.45
2019-04-27T13:41:08.734Z,18.34
2019-04-27T13:43:40.825Z,18.36
2019-04-27T13:46:38.213Z,18.33
2019-04-27T13:49:40.963Z,18.33
2019-04-27T13:52:16.814Z,18.44
2019-04-27T13:54:48.837Z,18.44
2019-04-27T13:57:20.900Z,19.09
2019-04-27T13:59:52.855Z,18.66
2019-04-27T14:02:31.864Z,18.52
2019-04-27T14:04:59.902Z,18.43
2019-04-27T14:07:31.998Z,18.64
2019-04-27T14:10:04.163Z,18.81
2019-04-27T14:12:36.253Z,18.81
2019-04-27T14:15:08.745Z,18.70
2019-04-27T14:17:40.988Z,18.94
2019-04-27T14:20:12.797Z,18.94
2019-04-27T14:22:44.719Z,18.94
2019-04-27T14:25:18.060Z,18.94
2019-04-27T14:27:50.423Z,18.98
2019-04-27T14:30:22.462Z,19.04
2019-04-27T14:32:54.310Z,18.97
2019-04-27T14:35:28.298Z,18.97
2019-04-27T14:38:00.287Z,19.21
2019-04-27T14:40:32.336Z,19.42
2019-04-27T14:43:04.483Z,19.19
2019-04-27T14:45:39.538Z,19.37
2019-04-27T14:48:12.838Z,19.43
2019-04-27T14:50:44.308Z,19.76
2019-04-27T14:53:16.257Z,19.63
2019-04-27T14:55:49.035Z,19.57
2019-04-27T14:58:21.984Z,22.76
2019-04-27T15:00:54.040Z,31.85
2019-04-27T15:03:28.968Z,27.81
2019-04-27T15:06:00.550Z,27.81
2019-04-27T15:08:34.031Z,25.55
2019-04-27T15:11:10.454Z,25.55
2019-04-27T15:13:43.079Z,24.05
2019-04-27T15:16:14.798Z,24.87
2019-04-27T15:18:51.767Z,24.87
2019-04-27T15:21:25.454Z,25.12
2019-04-27T15:24:04.265Z,24.75
2019-04-27T15:26:33.248Z,25.44
2019-04-27T15:29:06.674Z,25.04
2019-04-27T15:31:45.845Z,25.04
2019-04-27T15:34:35.475Z,24.50
2019-04-27T15:37:35.371Z,24.50
2019-04-27T15:40:36.590Z,24.96
2019-04-27T15:43:38.528Z,24.67
2019-04-27T15:46:10.162Z,25.29
2019-04-27T15:48:42.639Z,24.70
2019-04-27T15:51:17.395Z,25.02
2019-04-27T15:53:50.711Z,25.02
2019-04-27T15:56:22.487Z,20.79
2019-04-27T15:58:55.817Z,21.42
2019-04-27T16:01:31.238Z,21.42
2019-04-27T16:04:02.619Z,21.08
2019-04-27T16:06:35.517Z,20.49
2019-04-27T16:09:16.010Z,20.94
2019-04-27T16:11:50.108Z,20.49
2019-04-27T16:14:20.881Z,20.96
2019-04-27T16:16:52.776Z,20.60
2019-04-27T16:19:24.379Z,20.60
2019-04-27T16:21:59.106Z,20.53
2019-04-27T16:24:31.488Z,20.73
2019-04-27T16:27:03.205Z,20.63
2019-04-27T16:29:35.331Z,20.63
2019-04-27T16:32:11.250Z,21.04
2019-04-27T16:34:41.415Z,21.04
2019-04-27T16:37:18.974Z,21.31
2019-04-27T16:39:49.550Z,21.47
2019-04-27T16:42:21.793Z,20.93
2019-04-27T16:44:53.855Z,21.27
2019-04-27T16:47:25.719Z,21.12
2019-04-27T16:50:00.792Z,21.36
2019-04-27T16:52:32.692Z,21.36
2019-04-27T16:55:04.766Z,21.16
2019-04-27T16:57:39.640Z,21.22
2019-04-27T17:00:14.941Z,20.73
2019-04-27T17:02:49.501Z,20.73
2019-04-27T17:05:24.396Z,20.94
2019-04-27T17:07:55.082Z,21.27
2019-04-27T17:10:28.655Z,21.27
2019-04-27T17:13:00.406Z,21.89
2019-04-27T17:15:58.956Z,21.89
2019-04-27T17:18:38.565Z,21.72
2019-04-27T17:21:18.803Z,21.64
2019-04-27T17:23:44.227Z,21.63
2019-04-27T17:26:21.731Z,21.75
2019-04-27T17:28:59.209Z,21.75
2019-04-27T17:31:32.779Z,21.42
2019-04-27T17:34:08.019Z,21.42
2019-04-27T17:36:40.276Z,21.71
2019-04-27T17:39:12.489Z,21.99
2019-04-27T17:41:49.273Z,22.45
2019-04-27T17:44:22.631Z,22.31
2019-04-27T17:47:35.895Z,22.31
2019-04-27T17:50:05.042Z,22.29
2019-04-27T17:52:55.456Z,22.00
2019-04-27T17:55:25.434Z,22.29
2019-04-27T17:58:05.316Z,22.30
2019-04-27T18:00:41.665Z,22.30
2019-04-27T18:03:17.492Z,22.30
2019-04-27T18:05:54.027Z,22.44
2019-04-27T18:08:31.851Z,22.55
2019-04-27T18:11:03.777Z,22.55
2019-04-27T18:13:42.127Z,22.75
2019-04-27T18:16:13.790Z,22.75
2019-04-27T18:19:11.591Z,23.25
2019-04-27T18:22:00.513Z,23.25
2019-04-27T18:24:39.694Z,24.00
2019-04-27T18:27:49.594Z,24.00
2019-04-27T18:30:33.800Z,24.30
2019-04-27T18:33:09.637Z,24.12
2019-04-27T18:35:42.385Z,24.12
2019-04-27T18:38:13.944Z,24.02
2019-04-27T18:40:45.497Z,24.01
2019-04-27T18:43:18.729Z,24.02
2019-04-27T18:45:50.607Z,23.71
2019-04-27T18:48:32.326Z,23.70
2019-04-27T18:51:31.943Z,23.72
2019-04-27T18:54:04.006Z,23.83
2019-04-27T18:56:38.614Z,23.98
2019-04-27T18:59:09.704Z,24.07
2019-04-27T19:01:42.071Z,23.89
2019-04-27T19:04:13.874Z,24.84
2019-04-27T19:06:45.824Z,24.84
2019-04-27T19:09:18.829Z,24.68
2019-04-27T19:11:56.041Z,24.63
2019-04-27T19:14:28.222Z,25.29
2019-04-27T19:17:00.344Z,24.88
2019-04-27T19:19:32.278Z,24.79
2019-04-27T19:22:03.834Z,24.79
2019-04-27T19:24:35.647Z,24.63
2019-04-27T19:27:30.262Z,24.60
2019-04-27T19:30:11.860Z,24.60
2019-04-27T19:32:44.204Z,24.70
2019-04-27T19:35:19.778Z,24.31
2019-04-27T19:37:50.702Z,24.48
2019-04-27T19:40:22.513Z,24.29
2019-04-27T19:42:54.549Z,24.29
2019-04-27T19:45:26.344Z,24.42
2019-04-27T19:47:57.876Z,24.88
2019-04-27T19:50:29.621Z,24.88
2019-04-27T19:53:01.428Z,25.00
2019-04-27T19:55:33.286Z,25.30
2019-04-27T19:58:05.631Z,25.65
2019-04-27T20:00:48.452Z,25.54
2019-04-27T20:03:28.870Z,25.86
2019-04-27T20:06:00.797Z,25.74
2019-04-27T20:08:34.795Z,26.17
2019-04-27T20:11:06.708Z,26.69
2019-04-27T20:13:38.325Z,26.97
2019-04-27T20:16:10.851Z,26.75
2019-04-27T20:18:43.326Z,26.64
2019-04-27T20:21:15.485Z,27.11
2019-04-27T20:23:47.158Z,27.11
2019-04-27T20:26:19.217Z,26.57
2019-04-27T20:28:51.385Z,26.84
2019-04-27T20:31:23.561Z,26.84
2019-04-27T20:33:58.297Z,27.23
2019-04-27T20:36:31.350Z,27.23
2019-04-27T20:39:05.834Z,27.07
2019-04-27T20:41:38.810Z,27.30
2019-04-27T20:44:12.342Z,26.75
2019-04-27T20:46:43.748Z,26.99
2019-04-27T20:49:19.921Z,26.87
2019-04-27T20:52:10.969Z,26.87
2019-04-27T20:54:43.128Z,26.30
2019-04-27T20:57:14.998Z,26.34
2019-04-27T20:59:46.967Z,26.27
2019-04-27T21:02:51.953Z,25.99
2019-04-27T21:05:51.032Z,25.29
2019-04-27T21:08:23.116Z,24.95
2019-04-27T21:10:54.698Z,24.78
2019-04-27T21:13:26.379Z,23.73
2019-04-27T21:15:58.192Z,23.73
2019-04-27T21:18:31.812Z,22.94
2019-04-27T21:21:04.631Z,22.94
2019-04-27T21:23:36.241Z,23.24
2019-04-27T21:26:08.213Z,23.44
2019-04-27T21:28:42.992Z,23.14
2019-04-27T21:31:13.702Z,23.14
2019-04-27T21:33:45.592Z,24.14
2019-04-27T21:36:17.738Z,24.14
2019-04-27T21:38:51.083Z,23.94
2019-04-27T21:41:22.821Z,23.63
2019-04-27T21:43:54.372Z,23.97
2019-04-27T21:46:26.405Z,24.11
2019-04-27T21:49:00.032Z,24.01
2019-04-27T21:51:33.836Z,24.31
2019-04-27T21:54:20.957Z,23.96
2019-04-27T21:56:52.880Z,24.30
2019-04-27T21:59:24.629Z,24.30
2019-04-27T22:01:58.048Z,24.03
2019-04-27T22:04:31.384Z,24.19
2019-04-27T22:07:03.552Z,24.39
2019-04-27T22:09:35.184Z,24.39
2019-04-27T22:12:07.714Z,23.99
2019-04-27T22:14:39.601Z,23.04
2019-04-27T22:17:11.136Z,23.04
2019-04-27T22:19:43.013Z,23.02
2019-04-27T22:22:25.766Z,23.12
2019-04-27T22:25:07.527Z,23.19
2019-04-27T22:27:41.168Z,23.75
2019-04-27T22:30:13.184Z,23.75
2019-04-27T22:32:45.429Z,23.66
2019-04-27T22:35:17.733Z,23.65
2019-04-27T22:37:49.528Z,23.89
2019-04-27T22:40:43.481Z,24.17
2019-04-27T22:43:51.281Z,24.17
2019-04-27T22:46:24.222Z,24.28
2019-04-27T22:48:55.845Z,23.87
2019-04-27T22:51:27.530Z,23.87
2019-04-27T22:53:59.228Z,24.07
2019-04-27T22:56:32.124Z,24.15
2019-04-27T22:59:22.321Z,24.13
2019-04-27T23:02:13.415Z,24.14
2019-04-27T23:04:51.483Z,24.14
2019-04-27T23:07:25.039Z,24.22
2019-04-27T23:09:56.887Z,24.20
2019-04-27T23:12:28.792Z,24.20
2019-04-27T23:15:01.093Z,24.28
2019-04-27T23:17:56.613Z,24.71
2019-04-27T23:20:28.546Z,24.71
2019-04-27T23:23:02.791Z,24.19
2019-04-27T23:25:34.004Z,24.26
2019-04-27T23:28:05.910Z,24.26
2019-04-27T23:30:50.667Z,24.33
2019-04-27T23:33:22.511Z,24.33
2019-04-27T23:35:54.470Z,24.56
2019-04-27T23:38:26.213Z,24.56
2019-04-27T23:40:58.078Z,24.53
2019-04-27T23:43:29.758Z,24.71
2019-04-27T23:46:03.120Z,24.71
2019-04-27T23:48:34.999Z,24.47
2019-04-27T23:51:25.307Z,24.87
2019-04-27T23:53:57.246Z,24.72
2019-04-27T23:56:29.009Z,25.07
2019-04-27T23:59:01.919Z,24.94
